Time;durP1;ratioP1;P1;durP2;ratioP2;P2;SDS_P1;SDS_P2;PMS_P1;PMS_P2;Temp;Humidity;BMP_temperature;BMP_pressure;BME280_temperature;BME280_humidity;BME280_pressure;Samples;Min_cycle;Max_cycle;Signal;HPM_P1;HPM_P2
2021/12/26 00:02:11;;;;;;;4.30;3.40;;;-1.10;99.90;;;;;;5058427;28;20242;-80
2021/12/26 00:04:37;;;;;;;3.53;3.23;;;-1.20;99.90;;;;;;5058387;28;20202;-81
2021/12/26 00:07:03;;;;;;;8.10;3.10;;;-1.10;99.90;;;;;;5045561;28;20193;-81
2021/12/26 00:09:29;;;;;;;3.43;3.13;;;-1.20;99.90;;;;;;5058198;28;20272;-79
2021/12/26 00:11:58;;;;;;;4.47;3.33;;;-1.20;99.90;;;;;;5060235;28;20286;-80
2021/12/26 00:14:23;;;;;;;3.87;3.37;;;-1.20;99.90;;;;;;5060381;28;20189;-79
2021/12/26 00:16:49;;;;;;;5.37;3.40;;;-1.20;99.90;;;;;;5043908;28;20190;-79
2021/12/26 00:19:15;;;;;;;3.93;3.00;;;-1.20;99.90;;;;;;5026035;28;20896;-79
2021/12/26 00:21:40;;;;;;;5.53;3.57;;;-1.30;99.90;;;;;;5058202;28;20217;-80
2021/12/26 00:24:06;;;;;;;5.10;3.50;;;-1.30;99.90;;;;;;5043894;28;20226;-82
2021/12/26 00:26:32;;;;;;;5.13;3.50;;;-1.30;99.90;;;;;;5037398;28;20206;-79
2021/12/26 00:29:02;;;;;;;4.67;3.20;;;-1.40;99.90;;;;;;5043933;28;20190;-80
2021/12/26 00:31:28;;;;;;;4.17;3.20;;;-1.40;99.90;;;;;;5039246;28;20194;-80
2021/12/26 00:33:54;;;;;;;4.70;3.53;;;-1.40;99.90;;;;;;5042070;28;20187;-80
2021/12/26 00:36:20;;;;;;;4.47;3.77;;;-1.50;99.90;;;;;;5055812;28;20212;-80
2021/12/26 00:38:45;;;;;;;4.27;3.20;;;-1.50;99.90;;;;;;5053813;28;20189;-79
2021/12/26 00:41:11;;;;;;;4.03;3.40;;;-1.50;99.90;;;;;;5040373;28;20210;-80
2021/12/26 00:43:37;;;;;;;4.70;3.67;;;-1.50;99.90;;;;;;5055961;28;20209;-81
2021/12/26 00:46:04;;;;;;;4.23;3.70;;;-1.50;99.90;;;;;;5054513;28;20186;-81
2021/12/26 00:48:30;;;;;;;4.47;3.63;;;-1.50;99.90;;;;;;5057941;28;20289;-80
2021/12/26 00:50:56;;;;;;;5.27;3.47;;;-1.60;99.90;;;;;;5040633;28;20198;-80
2021/12/26 00:53:22;;;;;;;4.83;3.70;;;-1.60;99.90;;;;;;5041480;28;20190;-81
2021/12/26 00:55:49;;;;;;;3.93;3.27;;;-1.50;99.90;;;;;;5037864;28;20213;-80
2021/12/26 00:58:14;;;;;;;5.90;3.67;;;-1.60;99.90;;;;;;5054682;28;20213;-80
2021/12/26 01:00:47;;;;;;;8.13;3.63;;;-1.50;99.90;;;;;;5055833;28;20344;-78
2021/12/26 01:03:15;;;;;;;4.63;3.43;;;-1.60;99.90;;;;;;5056079;28;20205;-80
2021/12/26 01:05:46;;;;;;;5.23;3.60;;;-1.60;99.90;;;;;;5056790;28;20289;-81
2021/12/26 01:08:15;;;;;;;5.10;3.80;;;-1.60;99.90;;;;;;5059289;28;20285;-80
2021/12/26 01:10:55;;;;;;;4.53;3.60;;;-1.70;99.90;;;;;;5054123;28;20205;-81
2021/12/26 01:15:50;;;;;;;5.33;3.97;;;-1.70;99.90;;;;;;5057400;28;20256;-81
2021/12/26 01:18:17;;;;;;;5.33;3.67;;;-1.70;99.90;;;;;;5043073;28;20197;-81
2021/12/26 01:20:50;;;;;;;5.80;4.10;;;-1.80;99.90;;;;;;5040581;28;20206;-81
2021/12/26 01:23:19;;;;;;;3.93;3.50;;;-1.70;99.90;;;;;;5042684;28;20329;-79
2021/12/26 01:25:46;;;;;;;4.77;3.80;;;-1.70;99.90;;;;;;5055434;28;20205;-79
2021/12/26 01:28:13;;;;;;;5.87;4.07;;;-1.70;99.90;;;;;;5023816;28;20209;-79
2021/12/26 01:30:40;;;;;;;5.57;3.60;;;-1.70;99.90;;;;;;5054817;28;20193;-79
2021/12/26 01:33:08;;;;;;;4.83;4.03;;;-1.70;99.90;;;;;;5039813;28;20190;-80
2021/12/26 01:35:34;;;;;;;5.60;3.43;;;-1.70;99.90;;;;;;5037719;28;20187;-80
2021/12/26 01:37:59;;;;;;;6.23;3.90;;;-1.70;99.90;;;;;;5040726;28;20536;-80
2021/12/26 01:40:25;;;;;;;4.00;3.30;;;-1.80;99.90;;;;;;5039017;28;20326;-80
2021/12/26 01:42:51;;;;;;;4.57;3.50;;;-1.80;99.90;;;;;;5052404;28;20206;-81
2021/12/26 01:45:17;;;;;;;4.67;3.20;;;-1.80;99.90;;;;;;5041023;28;20208;-79
2021/12/26 01:47:46;;;;;;;12.03;4.10;;;-1.80;99.90;;;;;;5073309;28;20194;-80
2021/12/26 01:50:12;;;;;;;5.03;3.60;;;-1.80;99.90;;;;;;5028207;28;20189;-80
2021/12/26 01:52:37;;;;;;;4.70;3.53;;;-1.80;99.90;;;;;;5038323;28;20573;-82
2021/12/26 01:57:50;;;;;;;5.70;4.00;;;-1.80;99.90;;;;;;5057342;28;20255;-80
2021/12/26 02:00:20;;;;;;;6.57;4.00;;;-1.90;99.90;;;;;;5055979;28;20201;-81
2021/12/26 02:02:47;;;;;;;4.97;3.93;;;-1.90;99.90;;;;;;5037322;28;20687;-79
2021/12/26 02:05:12;;;;;;;6.33;3.87;;;-1.90;99.90;;;;;;5040785;28;20206;-78
2021/12/26 02:07:38;;;;;;;5.30;4.00;;;-1.90;99.90;;;;;;5041284;28;20178;-79
2021/12/26 02:10:05;;;;;;;5.07;3.93;;;-1.90;99.90;;;;;;5022828;28;20651;-79
2021/12/26 02:12:31;;;;;;;4.63;3.77;;;-1.90;99.90;;;;;;5057231;28;20209;-78
2021/12/26 02:14:57;;;;;;;6.93;4.07;;;-2.00;99.90;;;;;;5060249;28;20596;-79
2021/12/26 02:17:22;;;;;;;4.27;3.87;;;-2.00;99.90;;;;;;5041650;28;20677;-79
2021/12/26 02:19:50;;;;;;;4.17;3.77;;;-2.00;99.90;;;;;;5041281;28;20217;-79
2021/12/26 02:22:23;;;;;;;5.90;4.07;;;-1.90;99.90;;;;;;5060057;28;20229;-78
2021/12/26 02:27:32;;;;;;;7.67;4.00;;;-2.00;99.90;;;;;;5061522;28;20204;-77
2021/12/26 02:30:05;;;;;;;4.73;4.00;;;-2.00;99.90;;;;;;5060128;28;20283;-79
2021/12/26 02:32:31;;;;;;;4.33;4.03;;;-2.00;99.90;;;;;;5078686;28;20180;-77
2021/12/26 02:34:58;;;;;;;4.50;3.90;;;-2.00;99.90;;;;;;5043972;28;20248;-79
2021/12/26 02:37:25;;;;;;;4.80;3.90;;;-2.00;99.90;;;;;;5027941;28;20196;-79
2021/12/26 02:39:50;;;;;;;5.57;3.97;;;-2.00;99.90;;;;;;5059115;28;20683;-79
2021/12/26 02:42:21;;;;;;;6.50;4.30;;;-2.00;99.90;;;;;;5057551;28;20200;-79
2021/12/26 02:44:47;;;;;;;4.47;4.03;;;-1.90;99.90;;;;;;5027783;28;20710;-79
2021/12/26 02:47:14;;;;;;;4.40;4.00;;;-2.00;99.90;;;;;;5077003;28;20593;-79
2021/12/26 02:49:40;;;;;;;5.77;4.20;;;-2.00;99.90;;;;;;5043843;28;20193;-78
2021/12/26 02:52:06;;;;;;;4.73;4.20;;;-2.00;99.90;;;;;;5027879;28;20197;-79
2021/12/26 02:54:32;;;;;;;4.70;4.30;;;-2.00;99.90;;;;;;5043191;28;20182;-77
2021/12/26 02:56:58;;;;;;;4.90;4.37;;;-2.10;99.90;;;;;;5077423;28;20204;-78
2021/12/26 02:59:23;;;;;;;4.60;4.20;;;-2.10;99.90;;;;;;5043832;28;20292;-78
2021/12/26 03:01:49;;;;;;;4.60;4.10;;;-2.10;99.90;;;;;;5058288;28;20210;-80
2021/12/26 03:04:15;;;;;;;6.47;3.80;;;-2.00;99.90;;;;;;5061519;28;20220;-78
2021/12/26 03:09:06;;;;;;;5.73;4.37;;;-1.90;99.90;;;;;;5075400;28;20279;-80
2021/12/26 03:11:32;;;;;;;6.87;4.67;;;-2.00;99.90;;;;;;5060070;28;20212;-78
2021/12/26 03:14:00;;;;;;;4.97;4.43;;;-2.10;99.90;;;;;;5061933;28;20200;-79
2021/12/26 03:16:26;;;;;;;5.00;4.50;;;-2.00;99.90;;;;;;5050387;28;20301;-79
2021/12/26 03:19:00;;;;;;;5.13;4.07;;;-2.10;99.90;;;;;;5062399;28;20296;-79
2021/12/26 03:21:26;;;;;;;8.37;4.57;;;-2.10;99.90;;;;;;5064622;28;20320;-79
2021/12/26 03:23:52;;;;;;;4.97;4.43;;;-2.10;99.90;;;;;;5030795;28;20272;-79
2021/12/26 03:26:18;;;;;;;5.83;4.73;;;-2.10;99.90;;;;;;5063935;28;20236;-77
2021/12/26 03:28:43;;;;;;;5.50;4.77;;;-2.10;99.90;;;;;;5047864;28;20204;-79
2021/12/26 03:31:10;;;;;;;5.40;4.90;;;-2.10;99.90;;;;;;5030806;28;20516;-80
2021/12/26 03:33:36;;;;;;;4.77;4.37;;;-2.20;99.90;;;;;;5050651;28;20193;-78
2021/12/26 03:36:02;;;;;;;6.90;4.70;;;-2.20;99.90;;;;;;5043027;28;20245;-79
2021/12/26 03:38:29;;;;;;;5.13;3.90;;;-2.20;99.90;;;;;;5044788;28;20194;-80
2021/12/26 03:40:56;;;;;;;5.33;4.83;;;-2.10;99.90;;;;;;5030992;28;20231;-77
2021/12/26 03:43:23;;;;;;;4.93;4.33;;;-2.00;99.90;;;;;;5078780;28;20726;-80
2021/12/26 03:45:50;;;;;;;5.00;4.50;;;-2.10;99.90;;;;;;5030611;28;20197;-79
2021/12/26 03:48:21;;;;;;;7.30;4.30;;;-2.10;99.90;;;;;;5039628;28;20182;-79
2021/12/26 03:50:48;;;;;;;4.77;4.27;;;-2.10;99.90;;;;;;5064874;28;20190;-78
2021/12/26 03:53:14;;;;;;;5.97;4.50;;;-2.10;99.90;;;;;;5061488;28;20220;-79
2021/12/26 03:55:40;;;;;;;6.60;4.37;;;-2.10;99.90;;;;;;5063483;28;20275;-80
2021/12/26 03:58:06;;;;;;;4.60;4.30;;;-2.00;99.90;;;;;;5047480;28;20645;-78
2021/12/26 04:00:33;;;;;;;5.03;4.47;;;-2.10;99.90;;;;;;5065061;28;20280;-77
2021/12/26 04:02:58;;;;;;;5.53;4.50;;;-2.10;99.90;;;;;;5047515;28;20228;-79
2021/12/26 04:05:24;;;;;;;5.27;4.87;;;-2.10;99.90;;;;;;5050326;28;20221;-79
2021/12/26 04:07:50;;;;;;;8.17;5.37;;;-2.10;99.90;;;;;;5047374;28;20189;-79
2021/12/26 04:10:18;;;;;;;5.73;4.77;;;-2.00;99.90;;;;;;5080615;28;20663;-79
2021/12/26 04:12:47;;;;;;;4.83;4.43;;;-2.10;99.90;;;;;;5063043;28;20698;-79
2021/12/26 04:15:15;;;;;;;7.63;5.17;;;-2.00;99.90;;;;;;5033192;28;20196;-78
2021/12/26 04:17:41;;;;;;;5.30;4.80;;;-2.10;99.90;;;;;;5063462;28;20237;-79
2021/12/26 04:20:09;;;;;;;4.90;4.40;;;-2.10;99.90;;;;;;5061889;28;20213;-79
2021/12/26 04:22:35;;;;;;;6.40;4.70;;;-2.10;99.90;;;;;;5081656;28;20221;-78
2021/12/26 04:25:01;;;;;;;6.93;5.23;;;-2.10;99.90;;;;;;5061101;28;20196;-78
2021/12/26 04:27:26;;;;;;;5.47;4.50;;;-2.10;99.90;;;;;;5063761;28;20202;-79
2021/12/26 04:29:54;;;;;;;7.07;5.10;;;-2.10;99.90;;;;;;5045008;28;20196;-78
2021/12/26 04:32:21;;;;;;;7.40;4.87;;;-2.10;99.90;;;;;;5063272;28;20181;-79
2021/12/26 04:34:47;;;;;;;6.83;4.93;;;-2.10;99.90;;;;;;5047445;28;20550;-78
2021/12/26 04:37:13;;;;;;;6.60;4.53;;;-2.10;99.90;;;;;;5079582;28;20561;-79
2021/12/26 04:39:38;;;;;;;4.97;4.43;;;-2.10;99.90;;;;;;5045986;28;20190;-78
2021/12/26 04:42:04;;;;;;;5.60;4.90;;;-2.10;99.90;;;;;;5062777;28;20255;-79
2021/12/26 04:44:30;;;;;;;7.30;4.90;;;-2.10;99.90;;;;;;5046795;28;20251;-77
2021/12/26 04:46:56;;;;;;;5.97;5.33;;;-2.10;99.90;;;;;;5064209;28;20185;-79
2021/12/26 04:49:22;;;;;;;5.73;4.70;;;-2.10;99.90;;;;;;5045419;28;20215;-78
2021/12/26 04:51:47;;;;;;;5.07;4.50;;;-2.10;99.90;;;;;;5043300;28;20680;-77
2021/12/26 04:54:13;;;;;;;6.60;5.03;;;-2.10;99.90;;;;;;5060324;28;20188;-79
2021/12/26 04:56:39;;;;;;;5.60;4.73;;;-2.10;99.90;;;;;;5084208;28;20204;-79
2021/12/26 04:59:05;;;;;;;5.17;4.67;;;-2.10;99.90;;;;;;5057310;28;20216;-78
2021/12/26 05:01:31;;;;;;;5.57;4.90;;;-2.10;99.90;;;;;;5064466;28;20285;-78
2021/12/26 05:03:57;;;;;;;5.63;4.67;;;-2.10;99.90;;;;;;5046500;28;20217;-78
2021/12/26 05:06:25;;;;;;;5.77;4.93;;;-2.10;99.90;;;;;;5082830;28;20616;-78
2021/12/26 05:08:51;;;;;;;5.97;4.80;;;-2.20;99.90;;;;;;5047442;28;20180;-79
2021/12/26 05:11:17;;;;;;;4.97;4.47;;;-2.10;99.90;;;;;;5046089;28;20249;-80
2021/12/26 05:13:42;;;;;;;5.53;4.60;;;-2.20;99.90;;;;;;5047760;28;20197;-79
2021/12/26 05:16:08;;;;;;;8.93;4.80;;;-2.20;99.90;;;;;;5025981;28;20223;-79
2021/12/26 05:18:34;;;;;;;5.70;5.20;;;-2.10;99.90;;;;;;5048357;28;20238;-80
2021/12/26 05:20:59;;;;;;;6.13;4.73;;;-2.20;99.90;;;;;;5044424;28;20208;-79
2021/12/26 05:23:25;;;;;;;5.47;4.90;;;-2.10;99.90;;;;;;5046119;28;20950;-78
2021/12/26 05:25:51;;;;;;;5.23;4.80;;;-2.20;99.90;;;;;;5061264;28;20181;-80
2021/12/26 05:28:16;;;;;;;6.27;5.00;;;-2.20;99.90;;;;;;5027815;28;20208;-78
2021/12/26 05:30:42;;;;;;;7.13;4.93;;;-2.20;99.90;;;;;;5064497;28;20716;-79
2021/12/26 05:33:08;;;;;;;5.20;4.80;;;-2.20;99.90;;;;;;5061026;28;20198;-78
2021/12/26 05:35:34;;;;;;;5.80;5.20;;;-2.20;99.90;;;;;;5028529;28;20613;-79
2021/12/26 05:37:59;;;;;;;5.83;5.33;;;-2.20;99.90;;;;;;5045294;28;20685;-79
2021/12/26 05:40:25;;;;;;;6.17;5.20;;;-2.20;99.90;;;;;;5062405;28;20204;-79
2021/12/26 05:42:51;;;;;;;5.37;4.87;;;-2.20;99.90;;;;;;5063003;28;20197;-79
2021/12/26 05:45:19;;;;;;;5.77;5.27;;;-2.30;99.90;;;;;;5049331;28;20189;-79
2021/12/26 05:47:45;;;;;;;5.90;5.30;;;-2.20;99.90;;;;;;5046251;28;20193;-78
2021/12/26 05:50:14;;;;;;;5.53;4.97;;;-2.30;99.90;;;;;;5067181;28;20189;-79
2021/12/26 05:52:41;;;;;;;5.43;4.93;;;-2.20;99.90;;;;;;5060053;28;20187;-79
2021/12/26 05:55:07;;;;;;;7.57;5.23;;;-2.30;99.90;;;;;;5047977;28;20531;-79
2021/12/26 05:57:33;;;;;;;6.57;5.33;;;-2.30;99.90;;;;;;5081441;28;20242;-79
2021/12/26 05:59:59;;;;;;;5.30;4.80;;;-2.20;99.90;;;;;;5062838;28;20209;-78
2021/12/26 06:02:25;;;;;;;7.17;6.30;;;-2.30;99.90;;;;;;5029718;28;20241;-78
2021/12/26 06:04:51;;;;;;;7.07;5.40;;;-2.30;99.90;;;;;;5046005;28;20312;-79
2021/12/26 06:07:17;;;;;;;5.53;5.03;;;-2.30;99.90;;;;;;5075727;28;20288;-78
2021/12/26 06:09:43;;;;;;;6.30;5.60;;;-2.20;99.90;;;;;;5063707;28;20289;-79
2021/12/26 06:12:09;;;;;;;6.13;5.53;;;-2.30;99.90;;;;;;5078448;28;20688;-79
2021/12/26 06:14:35;;;;;;;5.83;5.33;;;-2.30;99.90;;;;;;5061245;28;20185;-79
2021/12/26 06:17:00;;;;;;;6.47;5.50;;;-2.20;99.90;;;;;;5043926;28;20241;-79
2021/12/26 06:19:26;;;;;;;5.77;5.17;;;-2.30;99.90;;;;;;5062783;28;20190;-79
2021/12/26 06:21:52;;;;;;;8.27;5.63;;;-2.20;99.90;;;;;;5027123;28;20206;-79
2021/12/26 06:24:17;;;;;;;6.20;5.60;;;-2.20;99.90;;;;;;5040077;28;20232;-79
2021/12/26 06:26:43;;;;;;;6.30;5.67;;;-2.30;99.90;;;;;;5031476;28;20205;-79
2021/12/26 06:29:09;;;;;;;5.87;5.20;;;-2.30;99.90;;;;;;5061599;28;20237;-79
2021/12/26 06:31:34;;;;;;;5.67;5.07;;;-2.30;99.90;;;;;;5030991;28;20188;-78
2021/12/26 06:34:00;;;;;;;5.80;5.30;;;-2.30;99.90;;;;;;5043806;28;20229;-79
2021/12/26 06:36:26;;;;;;;6.10;5.50;;;-2.30;99.90;;;;;;5046025;28;20275;-79
2021/12/26 06:38:51;;;;;;;7.67;5.97;;;-2.30;99.90;;;;;;5044575;28;20193;-79
2021/12/26 06:41:17;;;;;;;6.27;5.67;;;-2.30;99.90;;;;;;5028259;28;20270;-79
2021/12/26 06:43:43;;;;;;;6.03;5.53;;;-2.30;99.90;;;;;;5044667;28;20189;-79
2021/12/26 06:46:10;;;;;;;5.90;5.40;;;-2.20;99.90;;;;;;5058563;28;20206;-79
2021/12/26 06:48:41;;;;;;;5.60;5.10;;;-2.30;99.90;;;;;;5045982;28;20189;-79
2021/12/26 06:51:07;;;;;;;6.47;5.50;;;-2.30;99.90;;;;;;5068168;28;20219;-78
2021/12/26 06:53:33;;;;;;;5.83;5.23;;;-2.30;99.90;;;;;;5027633;28;20678;-79
2021/12/26 06:55:59;;;;;;;5.83;5.33;;;-2.30;99.90;;;;;;5067168;28;20193;-78
2021/12/26 06:58:25;;;;;;;6.63;5.73;;;-2.40;99.90;;;;;;5085936;28;20209;-79
2021/12/26 07:00:51;;;;;;;6.73;6.13;;;-2.30;99.90;;;;;;5065502;28;20318;-79
2021/12/26 07:03:17;;;;;;;5.97;5.33;;;-2.40;99.90;;;;;;5050380;28;20261;-79
2021/12/26 07:05:43;;;;;;;6.63;6.03;;;-2.30;99.90;;;;;;5062934;28;20185;-79
2021/12/26 07:08:09;;;;;;;6.03;5.53;;;-2.40;99.90;;;;;;5065394;28;20631;-79
2021/12/26 07:10:34;;;;;;;6.00;5.50;;;-2.40;99.90;;;;;;5050226;28;20193;-78
2021/12/26 07:13:00;;;;;;;6.33;5.73;;;-2.40;99.90;;;;;;5081168;28;20862;-80
2021/12/26 07:15:26;;;;;;;6.53;5.70;;;-2.40;99.90;;;;;;5083261;28;20259;-78
2021/12/26 07:17:52;;;;;;;7.30;6.10;;;-2.40;99.90;;;;;;5063444;28;20292;-79
2021/12/26 07:20:18;;;;;;;8.07;5.93;;;-2.40;99.90;;;;;;5046645;28;20213;-78
2021/12/26 07:22:46;;;;;;;6.23;5.63;;;-2.40;99.90;;;;;;5047616;28;20189;-78
2021/12/26 07:25:13;;;;;;;7.67;5.67;;;-2.40;99.90;;;;;;5065789;28;20185;-77
2021/12/26 07:27:40;;;;;;;6.23;5.47;;;-2.40;99.90;;;;;;5031982;28;20212;-79
2021/12/26 07:30:07;;;;;;;5.67;5.20;;;-2.40;99.90;;;;;;5063019;28;20201;-78
2021/12/26 07:32:32;;;;;;;5.83;5.23;;;-2.40;99.90;;;;;;5048001;28;20189;-78
2021/12/26 07:34:58;;;;;;;8.33;5.67;;;-2.40;99.90;;;;;;5062888;28;20250;-79
2021/12/26 07:37:26;;;;;;;6.50;5.70;;;-2.40;99.90;;;;;;5031051;28;20238;-79
2021/12/26 07:39:51;;;;;;;7.93;5.77;;;-2.40;99.90;;;;;;5045179;28;20542;-78
2021/12/26 07:42:17;;;;;;;6.37;5.77;;;-2.30;99.90;;;;;;5045614;28;20208;-78
2021/12/26 07:44:43;;;;;;;6.07;5.47;;;-2.40;99.90;;;;;;5047956;28;20191;-79
2021/12/26 07:47:09;;;;;;;6.53;5.67;;;-2.40;99.90;;;;;;5049187;28;20192;-79
2021/12/26 07:49:35;;;;;;;6.50;5.57;;;-2.40;99.90;;;;;;5046756;28;20196;-79
2021/12/26 07:52:03;;;;;;;8.90;5.50;;;-2.40;99.90;;;;;;5047573;28;20188;-78
2021/12/26 07:54:28;;;;;;;6.67;5.70;;;-2.30;99.90;;;;;;5065775;28;20185;-79
2021/12/26 07:56:55;;;;;;;7.13;5.50;;;-2.30;99.90;;;;;;5045949;28;20217;-79
2021/12/26 07:59:21;;;;;;;5.87;5.27;;;-2.30;99.90;;;;;;5047142;28;20277;-78
2021/12/26 08:01:47;;;;;;;7.43;5.67;;;-2.30;99.90;;;;;;5061608;28;20215;-79
2021/12/26 08:04:14;;;;;;;6.30;5.70;;;-2.30;99.90;;;;;;5081095;28;20194;-77
2021/12/26 08:06:41;;;;;;;8.73;6.10;;;-2.20;99.90;;;;;;5041738;28;20971;-78
2021/12/26 08:09:07;;;;;;;7.30;6.60;;;-2.20;99.90;;;;;;5077747;28;20193;-78
2021/12/26 08:11:33;;;;;;;10.27;6.00;;;-2.20;99.90;;;;;;5061791;28;20568;-79
2021/12/26 08:13:59;;;;;;;8.70;5.70;;;-2.10;99.90;;;;;;5047965;28;20284;-79
2021/12/26 08:16:28;;;;;;;8.77;6.33;;;-2.10;99.90;;;;;;5049685;28;20269;-77
2021/12/26 08:18:54;;;;;;;6.30;5.70;;;-2.00;99.90;;;;;;5064285;28;20687;-78
2021/12/26 08:21:20;;;;;;;7.20;6.20;;;-1.80;99.90;;;;;;5082193;28;20205;-77
2021/12/26 08:23:46;;;;;;;7.10;6.40;;;-1.60;99.90;;;;;;5063997;28;20221;-79
2021/12/26 08:26:12;;;;;;;6.70;6.10;;;-1.50;99.90;;;;;;5045202;28;20284;-79
2021/12/26 08:28:38;;;;;;;6.33;5.73;;;-1.30;99.90;;;;;;5030449;28;20288;-78
2021/12/26 08:31:04;;;;;;;8.53;7.00;;;-0.80;99.90;;;;;;5061970;28;20272;-79
2021/12/26 08:33:30;;;;;;;7.60;6.90;;;-0.20;99.90;;;;;;5045529;28;20201;-78
2021/12/26 08:35:56;;;;;;;7.20;6.50;;;-0.30;99.90;;;;;;5062555;28;20224;-78
2021/12/26 08:38:23;;;;;;;7.07;6.37;;;-0.40;99.90;;;;;;5064737;28;20566;-77
2021/12/26 08:40:51;;;;;;;8.43;6.30;;;-0.70;99.90;;;;;;5044373;28;20221;-79
2021/12/26 08:43:17;;;;;;;7.10;6.50;;;-0.90;99.90;;;;;;5078042;28;20356;-79
2021/12/26 08:45:43;;;;;;;6.63;6.03;;;-1.10;99.90;;;;;;5043982;28;20268;-78
2021/12/26 08:48:09;;;;;;;6.90;5.73;;;-1.30;99.90;;;;;;5078462;28;20276;-78
2021/12/26 08:50:35;;;;;;;7.70;6.00;;;-1.30;99.90;;;;;;5059652;28;20216;-80
2021/12/26 08:53:01;;;;;;;6.20;5.70;;;-1.30;99.90;;;;;;5074346;28;20197;-77
2021/12/26 08:55:27;;;;;;;9.17;6.03;;;-1.40;99.90;;;;;;5059222;28;20203;-78
2021/12/26 08:57:54;;;;;;;8.57;5.93;;;-1.40;99.90;;;;;;5043213;28;20205;-79
2021/12/26 09:00:22;;;;;;;6.87;5.90;;;-1.30;99.90;;;;;;5030051;28;20208;-79
2021/12/26 09:02:49;;;;;;;7.77;6.30;;;-1.30;99.90;;;;;;5047638;28;20190;-78
2021/12/26 09:05:15;;;;;;;8.97;6.07;;;-1.20;99.90;;;;;;5080360;28;20308;-79
2021/12/26 09:07:41;;;;;;;7.43;6.20;;;-1.10;99.90;;;;;;5030431;28;20291;-78
2021/12/26 09:10:08;;;;;;;7.43;5.77;;;-1.10;99.90;;;;;;5045763;28;20254;-78
2021/12/26 09:12:36;;;;;;;6.17;5.57;;;-1.00;99.90;;;;;;5030999;28;20240;-78
2021/12/26 09:15:03;;;;;;;6.57;5.97;;;-1.00;99.90;;;;;;5046173;28;20216;-79
2021/12/26 09:17:29;;;;;;;9.77;5.97;;;-1.00;99.90;;;;;;5056694;28;20207;-77
2021/12/26 09:19:54;;;;;;;6.33;5.50;;;-1.00;99.90;;;;;;5042349;28;20206;-77
2021/12/26 09:22:20;;;;;;;11.17;6.20;;;-0.90;99.90;;;;;;5045407;28;20186;-78
2021/12/26 09:24:46;;;;;;;8.03;5.90;;;-0.80;99.90;;;;;;5024128;28;20372;-79
2021/12/26 09:27:13;;;;;;;7.20;5.53;;;-0.70;99.90;;;;;;5042518;28;20220;-80
2021/12/26 09:29:39;;;;;;;5.97;5.33;;;-0.60;99.90;;;;;;5042701;28;20194;-79
2021/12/26 09:32:06;;;;;;;6.23;5.47;;;-0.60;99.90;;;;;;5057748;28;20185;-79
2021/12/26 09:34:33;;;;;;;7.83;6.00;;;-0.60;99.90;;;;;;5039819;28;20228;-78
2021/12/26 09:37:05;;;;;;;10.57;5.73;;;-0.60;99.90;;;;;;5040858;28;20650;-79
2021/12/26 09:39:32;;;;;;;10.57;5.67;;;-0.50;99.90;;;;;;5059782;28;20189;-79
2021/12/26 09:41:58;;;;;;;6.77;5.40;;;-0.50;99.90;;;;;;5059073;28;20566;-80
2021/12/26 09:44:24;;;;;;;5.97;5.40;;;-0.40;99.90;;;;;;5060666;28;20190;-79
2021/12/26 09:46:51;;;;;;;7.87;5.70;;;-0.30;99.90;;;;;;5038901;28;20190;-79
2021/12/26 09:49:17;;;;;;;7.07;5.40;;;-0.20;99.90;;;;;;5057707;28;20200;-80
2021/12/26 09:51:43;;;;;;;6.57;5.63;;;-0.20;99.90;;;;;;5055173;28;20187;-80
2021/12/26 09:54:09;;;;;;;7.20;5.20;;;-0.20;99.90;;;;;;5040133;28;20204;-80
2021/12/26 09:56:35;;;;;;;6.87;5.20;;;-0.10;99.90;;;;;;5056057;28;20214;-79
2021/12/26 09:59:05;;;;;;;10.53;5.63;;;0.00;99.90;;;;;;5054131;28;20194;-79
2021/12/26 10:01:38;;;;;;;7.20;5.00;;;0.10;99.90;;;;;;5058479;28;20292;-79
2021/12/26 10:04:17;;;;;;;6.47;5.63;;;0.20;99.90;;;;;;5058580;28;20210;-79
2021/12/26 10:06:44;;;;;;;9.57;5.17;;;0.30;99.90;;;;;;5058550;28;20685;-80
2021/12/26 10:09:11;;;;;;;5.60;4.87;;;0.40;99.90;;;;;;5056919;28;20247;-80
2021/12/26 10:11:42;;;;;;;7.13;5.77;;;0.50;99.90;;;;;;5058684;28;20740;-80
2021/12/26 10:14:20;;;;;;;7.53;5.53;;;0.60;99.90;;;;;;5026316;28;20236;-80
2021/12/26 10:16:54;;;;;;;9.40;5.63;;;0.70;99.90;;;;;;5049929;28;20186;-80
2021/12/26 10:19:20;;;;;;;9.03;5.60;;;0.80;99.90;;;;;;5054345;28;20271;-79
2021/12/26 10:21:51;;;;;;;7.60;5.10;;;0.90;99.90;;;;;;5041796;28;21167;-80
2021/12/26 10:24:29;;;;;;;6.10;5.33;;;0.80;99.90;;;;;;5039193;28;20320;-80
2021/12/26 10:27:01;;;;;;;6.23;5.00;;;0.90;99.90;;;;;;5043698;28;20585;-81
2021/12/26 10:29:30;;;;;;;7.90;5.13;;;0.90;99.90;;;;;;5055088;28;20178;-80
2021/12/26 10:32:03;;;;;;;7.40;5.20;;;0.90;99.90;;;;;;5052994;28;20707;-79
2021/12/26 10:34:43;;;;;;;8.07;4.80;;;0.90;99.90;;;;;;5056818;28;20772;-79
2021/12/26 10:37:13;;;;;;;8.13;5.10;;;0.90;99.90;;;;;;5054839;28;20372;-78
2021/12/26 10:39:42;;;;;;;6.13;4.60;;;0.90;99.90;;;;;;5056806;28;20695;-78
2021/12/26 10:42:13;;;;;;;6.90;4.73;;;1.00;99.90;;;;;;5057231;28;20290;-78
2021/12/26 10:44:45;;;;;;;14.93;4.80;;;1.00;99.90;;;;;;5057712;28;20228;-80
2021/12/26 10:47:17;;;;;;;6.47;4.67;;;1.10;99.90;;;;;;5055189;28;20186;-80
2021/12/26 10:49:45;;;;;;;6.87;5.13;;;1.20;99.90;;;;;;5039316;28;20182;-80
2021/12/26 10:52:17;;;;;;;8.30;4.73;;;1.20;99.90;;;;;;5056993;28;20249;-79
2021/12/26 10:54:47;;;;;;;8.40;4.83;;;1.20;99.90;;;;;;5050198;28;20185;-79
2021/12/26 10:57:19;;;;;;;6.97;4.73;;;1.20;99.90;;;;;;5057247;28;20197;-80
2021/12/26 10:59:47;;;;;;;7.70;5.23;;;1.30;99.90;;;;;;5054901;28;20209;-79
2021/12/26 11:02:26;;;;;;;7.30;5.00;;;1.30;99.90;;;;;;5056698;28;20220;-80
2021/12/26 11:05:00;;;;;;;7.17;5.30;;;1.40;99.90;;;;;;5037729;28;20223;-79
2021/12/26 11:07:26;;;;;;;5.87;4.70;;;1.40;99.90;;;;;;5056137;28;20707;-80
2021/12/26 11:10:06;;;;;;;7.13;5.60;;;1.60;99.90;;;;;;5040297;28;20190;-79
2021/12/26 11:12:41;;;;;;;9.77;5.37;;;1.60;99.90;;;;;;5051368;28;20213;-79
2021/12/26 11:15:08;;;;;;;7.37;5.17;;;1.60;99.90;;;;;;5052936;28;20277;-79
2021/12/26 11:17:37;;;;;;;9.03;5.97;;;1.70;99.90;;;;;;5054762;28;20201;-79
2021/12/26 11:20:05;;;;;;;10.13;5.67;;;1.70;99.90;;;;;;5057522;28;20186;-80
2021/12/26 11:22:31;;;;;;;9.20;5.53;;;1.70;99.90;;;;;;5056198;28;20264;-79
2021/12/26 11:24:58;;;;;;;9.53;5.33;;;1.80;99.90;;;;;;5059668;28;20826;-79
2021/12/26 11:27:28;;;;;;;7.30;5.43;;;1.90;99.90;;;;;;5061649;28;20277;-81
2021/12/26 11:29:54;;;;;;;9.27;6.03;;;2.00;99.90;;;;;;5028138;28;20246;-79
2021/12/26 11:32:22;;;;;;;9.50;5.63;;;2.10;99.90;;;;;;5079964;28;20252;-77
2021/12/26 11:34:49;;;;;;;9.10;5.23;;;2.10;99.90;;;;;;5062409;28;20173;-79
2021/12/26 11:37:16;;;;;;;7.97;5.53;;;2.10;99.90;;;;;;5046503;28;20271;-78
2021/12/26 11:39:44;;;;;;;7.13;5.27;;;2.10;99.90;;;;;;5063917;28;20189;-80
2021/12/26 11:42:48;;;;;;;14.57;6.13;;;2.10;99.90;;;;;;5063215;28;20224;-80
2021/12/26 11:45:39;;;;;;;14.07;6.30;;;2.10;99.90;;;;;;5021025;28;20222;-80
2021/12/26 11:48:26;;;;;;;7.17;5.77;;;2.10;99.90;;;;;;5066565;28;20172;-80
2021/12/26 11:51:20;;;;;;;8.23;5.53;;;2.10;99.90;;;;;;5064362;28;20189;-79
2021/12/26 11:54:14;;;;;;;7.47;5.47;;;2.10;99.90;;;;;;5064014;28;20196;-80
2021/12/26 11:56:46;;;;;;;8.77;6.13;;;2.10;99.90;;;;;;5063587;28;20292;-80
2021/12/26 11:59:50;;;;;;;8.87;6.20;;;2.10;99.90;;;;;;5047696;28;20184;-79
2021/12/26 12:02:42;;;;;;;9.00;6.23;;;2.20;99.90;;;;;;5001499;28;20228;-79
2021/12/26 12:05:10;;;;;;;8.90;5.97;;;2.30;99.90;;;;;;5049077;28;20245;-79
2021/12/26 12:07:47;;;;;;;7.93;6.30;;;2.20;99.90;;;;;;5066215;28;20196;-79
2021/12/26 12:10:33;;;;;;;11.03;5.73;;;2.20;99.90;;;;;;5063146;28;20196;-79
2021/12/26 12:12:59;;;;;;;7.93;5.67;;;2.20;99.90;;;;;;5064227;28;20249;-79
2021/12/26 12:15:48;;;;;;;8.97;6.23;;;2.20;99.90;;;;;;5028220;28;20618;-79
2021/12/26 12:18:24;;;;;;;15.80;7.10;;;2.30;99.90;;;;;;5080715;28;20194;-79
2021/12/26 12:21:11;;;;;;;20.87;7.73;;;2.30;99.90;;;;;;5062065;28;20669;-79
2021/12/26 12:23:56;;;;;;;14.73;7.27;;;2.40;99.90;;;;;;5057506;28;20217;-78
2021/12/26 12:26:43;;;;;;;11.03;6.30;;;2.50;99.90;;;;;;5058421;28;20223;-80
2021/12/26 12:29:33;;;;;;;9.30;6.87;;;2.50;99.90;;;;;;5071468;28;20196;-79
2021/12/26 12:32:08;;;;;;;9.80;6.87;;;2.60;99.90;;;;;;5074760;28;20305;-78
2021/12/26 12:34:56;;;;;;;10.30;6.43;;;2.60;99.90;;;;;;5068769;28;20235;-79
2021/12/26 12:37:41;;;;;;;11.33;7.27;;;2.70;99.90;;;;;;5057888;28;20196;-80
2021/12/26 12:40:09;;;;;;;8.70;6.77;;;2.90;99.90;;;;;;5058710;28;20189;-79
2021/12/26 12:42:36;;;;;;;8.83;6.60;;;2.90;99.90;;;;;;5041649;28;20296;-79
2021/12/26 12:48:31;;;;;;;10.60;7.07;;;3.00;99.90;;;;;;5075182;28;20213;-80
2021/12/26 12:51:02;;;;;;;9.70;7.27;;;3.00;99.90;;;;;;5057369;28;20243;-79
2021/12/26 12:53:58;;;;;;;9.57;7.13;;;3.00;99.90;;;;;;5057432;28;20185;-78
2021/12/26 12:56:29;;;;;;;11.30;7.03;;;3.00;99.90;;;;;;5058773;28;20196;-80
2021/12/26 12:59:13;;;;;;;10.23;7.03;;;3.00;99.90;;;;;;5059588;28;20200;-81
2021/12/26 13:01:51;;;;;;;12.30;7.63;;;3.10;99.90;;;;;;5045054;28;20749;-80
2021/12/26 13:04:24;;;;;;;11.43;6.90;;;3.10;99.90;;;;;;5059283;28;20209;-81
2021/12/26 13:07:02;;;;;;;10.73;7.10;;;3.20;99.90;;;;;;5075756;28;20189;-81
2021/12/26 13:09:30;;;;;;;11.57;7.00;;;3.20;99.90;;;;;;5070524;28;20165;-81